Time;durP1;ratioP1;P1;durP2;ratioP2;P2;SDS_P1;SDS_P2;PMS_P1;PMS_P2;Temp;Humidity;BMP_temperature;BMP_pressure;BME280_temperature;BME280_humidity;BME280_pressure;Samples;Min_cycle;Max_cycle;Signal;HPM_P1;HPM_P2
2022/02/17 00:00:15;;;;;;;8.68;1.60;;;9.40;99.90;;;;;;5028505;28;20060;-80
2022/02/17 00:02:42;;;;;;;3.72;1.63;;;9.40;99.90;;;;;;5033431;28;20045;-80
2022/02/17 00:05:09;;;;;;;8.85;2.42;;;9.50;99.90;;;;;;5034588;28;20453;-81
2022/02/17 00:07:41;;;;;;;5.63;1.95;;;9.60;99.90;;;;;;5043878;28;20128;-81
2022/02/17 00:10:08;;;;;;;5.07;1.77;;;9.60;99.90;;;;;;5029310;28;20112;-81
2022/02/17 00:12:34;;;;;;;6.47;2.25;;;9.60;99.90;;;;;;5038962;28;20546;-81
2022/02/17 00:15:00;;;;;;;7.95;2.20;;;9.60;99.90;;;;;;5024001;28;20129;-79
2022/02/17 00:17:26;;;;;;;12.00;2.38;;;9.70;99.90;;;;;;5040514;28;20542;-81
2022/02/17 00:19:51;;;;;;;9.48;2.42;;;9.60;99.90;;;;;;5032006;28;20103;-80
2022/02/17 00:22:17;;;;;;;8.10;1.90;;;9.70;99.90;;;;;;5046397;28;20047;-79
2022/02/17 00:24:44;;;;;;;5.63;1.85;;;9.70;99.90;;;;;;5033914;28;20053;-79
2022/02/17 00:27:09;;;;;;;4.07;1.50;;;9.60;99.90;;;;;;5030793;28;20474;-81
2022/02/17 00:29:35;;;;;;;4.70;1.88;;;9.50;99.90;;;;;;5014974;28;20061;-81
2022/02/17 00:32:01;;;;;;;11.13;2.47;;;9.50;99.90;;;;;;5026384;28;20047;-80
2022/02/17 00:34:27;;;;;;;9.68;2.83;;;9.80;99.90;;;;;;5015964;28;20102;-81
2022/02/17 00:36:52;;;;;;;8.02;2.38;;;10.00;99.90;;;;;;5017906;28;20470;-80
2022/02/17 00:39:18;;;;;;;12.95;2.65;;;10.00;99.90;;;;;;5033088;28;20076;-80
2022/02/17 00:41:44;;;;;;;11.32;2.05;;;9.90;99.90;;;;;;5027531;28;20045;-82
2022/02/17 00:44:10;;;;;;;12.02;2.97;;;9.80;99.90;;;;;;5043922;28;20045;-81
2022/02/17 00:46:36;;;;;;;10.27;2.40;;;9.80;99.90;;;;;;5031205;28;20049;-80
2022/02/17 00:49:01;;;;;;;3.83;2.22;;;9.80;99.90;;;;;;5014524;28;20379;-81
2022/02/17 00:51:27;;;;;;;11.38;2.97;;;9.70;99.90;;;;;;5014047;28;20045;-82
2022/02/17 00:53:53;;;;;;;8.15;3.03;;;9.70;99.90;;;;;;5015288;28;20513;-81
2022/02/17 00:56:18;;;;;;;5.75;1.65;;;9.80;99.90;;;;;;5014810;28;20045;-83
2022/02/17 00:58:44;;;;;;;9.18;2.20;;;9.70;99.90;;;;;;5031048;28;20456;-81
2022/02/17 01:01:10;;;;;;;11.25;2.97;;;9.70;99.90;;;;;;5029437;28;20048;-81
2022/02/17 01:03:35;;;;;;;10.30;2.15;;;9.70;99.90;;;;;;5014647;28;20049;-81
2022/02/17 01:06:02;;;;;;;7.60;2.13;;;9.70;99.90;;;;;;5029739;28;20096;-81
2022/02/17 01:08:27;;;;;;;9.32;2.15;;;9.70;99.90;;;;;;5030603;28;20065;-82
2022/02/17 01:10:53;;;;;;;7.40;2.22;;;9.70;99.90;;;;;;5037832;28;20077;-81
2022/02/17 01:13:20;;;;;;;7.55;2.17;;;9.70;99.90;;;;;;5014049;28;20041;-81
2022/02/17 01:15:46;;;;;;;6.38;2.42;;;9.60;99.90;;;;;;5032999;28;20124;-79
2022/02/17 01:18:11;;;;;;;6.28;2.13;;;9.70;99.90;;;;;;5014632;28;20140;-81
2022/02/17 01:20:37;;;;;;;6.28;1.92;;;9.60;99.90;;;;;;5030828;28;20046;-83
2022/02/17 01:23:03;;;;;;;6.95;1.83;;;9.60;99.90;;;;;;5030433;28;20049;-80
2022/02/17 01:25:29;;;;;;;5.20;1.85;;;9.40;99.90;;;;;;5015193;28;20046;-83
2022/02/17 01:27:55;;;;;;;9.05;1.85;;;9.20;99.90;;;;;;5013791;28;20132;-83
2022/02/17 01:30:21;;;;;;;4.20;1.50;;;9.30;99.90;;;;;;5029997;28;20111;-81
2022/02/17 01:32:47;;;;;;;5.75;2.08;;;9.20;99.90;;;;;;5030791;28;20042;-80
2022/02/17 01:35:13;;;;;;;7.72;2.20;;;9.30;99.90;;;;;;4996398;28;20124;-81
2022/02/17 01:37:39;;;;;;;4.97;1.67;;;9.30;99.90;;;;;;5032751;28;20441;-80
2022/02/17 01:40:05;;;;;;;5.88;1.90;;;9.30;99.90;;;;;;5029722;28;20045;-78
2022/02/17 01:42:31;;;;;;;7.10;2.03;;;9.30;99.90;;;;;;5030747;28;20045;-82
2022/02/17 01:44:56;;;;;;;9.50;2.17;;;9.10;99.90;;;;;;5018059;28;20060;-80
2022/02/17 01:47:22;;;;;;;6.90;2.70;;;9.10;99.90;;;;;;5043171;28;20041;-80
2022/02/17 01:49:48;;;;;;;9.00;1.95;;;9.10;99.90;;;;;;5033596;28;20500;-85
2022/02/17 01:52:15;;;;;;;5.95;2.10;;;9.00;99.90;;;;;;5031606;28;20037;-83
2022/02/17 01:54:44;;;;;;;9.32;2.03;;;9.00;99.90;;;;;;5015053;28;20363;-81
2022/02/17 01:57:14;;;;;;;1.55;1.45;;;8.90;99.90;;;;;;5031763;28;20506;-81
2022/02/17 01:59:42;;;;;;;6.85;1.67;;;8.90;99.90;;;;;;5030492;28;20045;-80
2022/02/17 02:02:08;;;;;;;8.43;2.47;;;8.80;99.90;;;;;;5029569;28;20149;-82
2022/02/17 02:04:34;;;;;;;9.48;2.65;;;8.80;99.90;;;;;;5009530;28;20096;-82
2022/02/17 02:07:00;;;;;;;3.63;1.50;;;8.90;99.90;;;;;;5022794;28;20065;-80
2022/02/17 02:09:26;;;;;;;9.60;2.05;;;8.90;99.90;;;;;;5029719;28;20041;-81
2022/02/17 02:11:52;;;;;;;8.48;2.25;;;8.90;99.90;;;;;;5014105;28;20049;-83
2022/02/17 02:14:18;;;;;;;11.45;2.65;;;8.90;99.90;;;;;;5029736;28;20073;-83
2022/02/17 02:16:45;;;;;;;10.80;2.72;;;8.80;99.90;;;;;;5021449;28;20048;-81
2022/02/17 02:19:12;;;;;;;9.10;2.63;;;8.80;99.90;;;;;;5013173;28;20056;-83
2022/02/17 02:21:37;;;;;;;6.18;2.22;;;8.80;99.90;;;;;;5029916;28;20132;-82
2022/02/17 02:24:04;;;;;;;7.22;2.40;;;8.70;99.90;;;;;;5017374;28;20124;-81
2022/02/17 02:26:30;;;;;;;7.57;2.10;;;8.60;99.90;;;;;;5012795;28;20046;-83
2022/02/17 02:28:56;;;;;;;6.75;2.22;;;8.60;99.90;;;;;;5012385;28;20633;-81
2022/02/17 02:31:22;;;;;;;;;;;8.50;99.90;;;;;;5024967;28;20037;-81
2022/02/17 02:33:48;;;;;;;13.82;2.00;;;8.60;99.90;;;;;;5047196;28;19992;-82
2022/02/17 02:36:14;;;;;;;9.10;3.08;;;8.60;99.90;;;;;;5042322;28;20048;-83
2022/02/17 02:38:40;;;;;;;6.25;1.70;;;8.60;99.90;;;;;;5038320;28;20079;-80
2022/02/17 02:41:06;;;;;;;;;;;8.50;99.90;;;;;;5039106;28;20038;-80
2022/02/17 02:43:32;;;;;;;7.15;2.00;;;8.50;99.90;;;;;;5032841;28;19921;-81
2022/02/17 02:45:58;;;;;;;7.50;3.20;;;8.50;99.90;;;;;;5018028;28;20045;-83
2022/02/17 02:48:24;;;;;;;6.72;2.72;;;8.40;99.90;;;;;;4996503;28;20099;-81
2022/02/17 02:50:49;;;;;;;9.25;3.20;;;8.40;99.90;;;;;;5012309;28;20140;-81
2022/02/17 02:53:16;;;;;;;10.85;3.33;;;8.60;99.90;;;;;;5025639;28;20051;-80
2022/02/17 02:55:47;;;;;;;6.82;1.73;;;8.60;99.90;;;;;;5033414;28;20045;-82
2022/02/17 02:58:14;;;;;;;11.73;3.50;;;8.50;99.90;;;;;;5033074;28;20462;-83
2022/02/17 03:00:44;;;;;;;4.80;1.88;;;8.40;99.90;;;;;;5036575;28;20030;-81
2022/02/17 03:03:10;;;;;;;17.98;2.83;;;8.40;99.90;;;;;;5032410;28;20049;-83
2022/02/17 03:05:36;;;;;;;;;;;8.40;99.90;;;;;;5016728;28;20047;-82
2022/02/17 03:08:03;;;;;;;7.90;1.77;;;8.40;99.90;;;;;;5032841;28;19917;-86
2022/02/17 03:10:30;;;;;;;11.65;2.83;;;8.50;99.90;;;;;;5018172;28;20040;-83
2022/02/17 03:12:56;;;;;;;7.85;1.88;;;8.40;99.90;;;;;;5021218;28;20125;-82
2022/02/17 03:15:22;;;;;;;;;;;8.40;99.90;;;;;;5016877;28;20528;-81
2022/02/17 03:17:48;;;;;;;9.57;2.70;;;8.50;99.90;;;;;;5038436;28;19917;-82
2022/02/17 03:20:14;;;;;;;5.82;2.65;;;8.50;99.90;;;;;;4998773;28;20041;-82
2022/02/17 03:22:41;;;;;;;7.28;2.58;;;8.50;99.90;;;;;;5016612;28;20133;-82
2022/02/17 03:25:09;;;;;;;4.38;2.03;;;8.50;99.90;;;;;;5032726;28;20438;-82
2022/02/17 03:27:35;;;;;;;8.23;2.85;;;8.50;99.90;;;;;;5032126;28;20456;-80
2022/02/17 03:30:02;;;;;;;10.10;3.00;;;8.50;99.90;;;;;;5019613;28;20058;-81
2022/02/17 03:32:28;;;;;;;11.38;3.10;;;8.50;99.90;;;;;;5028959;28;20096;-84
2022/02/17 03:34:54;;;;;;;10.43;3.00;;;8.50;99.90;;;;;;5006304;28;20083;-79
2022/02/17 03:37:20;;;;;;;8.82;2.58;;;8.40;99.90;;;;;;5036209;28;20105;-83
2022/02/17 03:39:46;;;;;;;4.38;2.47;;;8.40;99.90;;;;;;5032905;28;20049;-85
2022/02/17 03:42:12;;;;;;;8.05;2.92;;;8.40;99.90;;;;;;5014821;28;20165;-83
2022/02/17 03:44:37;;;;;;;12.45;3.10;;;8.40;99.90;;;;;;5034501;28;20045;-83
2022/02/17 03:47:05;;;;;;;14.70;3.53;;;8.40;99.90;;;;;;5035284;28;20048;-84
2022/02/17 03:49:30;;;;;;;6.20;2.80;;;8.30;99.90;;;;;;5010386;28;20040;-82
2022/02/17 03:51:56;;;;;;;6.43;2.35;;;8.40;99.90;;;;;;4999591;28;20534;-83
2022/02/17 03:54:22;;;;;;;11.05;2.85;;;8.40;99.90;;;;;;4999739;28;20052;-81
2022/02/17 03:56:48;;;;;;;8.63;3.38;;;8.30;99.90;;;;;;5033399;28;20403;-82
2022/02/17 03:59:13;;;;;;;10.07;2.78;;;8.30;99.90;;;;;;4997286;28;20121;-82
2022/02/17 04:01:40;;;;;;;6.38;2.63;;;8.40;99.90;;;;;;5012622;28;20068;-82
2022/02/17 04:04:08;;;;;;;4.00;1.80;;;8.40;99.90;;;;;;5032927;28;20045;-81
2022/02/17 04:06:34;;;;;;;12.55;2.72;;;8.40;99.90;;;;;;5040535;28;20485;-80
2022/02/17 04:09:00;;;;;;;7.53;2.40;;;8.30;99.90;;;;;;5033673;28;20120;-81
2022/02/17 04:11:26;;;;;;;8.73;2.92;;;8.40;99.90;;;;;;5015488;28;20408;-82
2022/02/17 04:13:53;;;;;;;4.95;2.22;;;8.30;99.90;;;;;;5037105;28;20049;-84
2022/02/17 04:16:19;;;;;;;8.35;2.55;;;8.40;99.90;;;;;;5035560;28;20033;-81
2022/02/17 04:18:47;;;;;;;9.68;2.88;;;8.40;99.90;;;;;;5034147;28;20041;-84
2022/02/17 04:21:14;;;;;;;6.40;1.88;;;8.40;99.90;;;;;;5043134;28;20041;-83
2022/02/17 04:23:44;;;;;;;6.68;2.47;;;8.30;99.90;;;;;;5013377;28;20038;-84
2022/02/17 04:26:15;;;;;;;8.88;2.03;;;8.30;99.90;;;;;;4996182;28;20050;-82
2022/02/17 04:28:43;;;;;;;6.00;2.55;;;8.30;99.90;;;;;;5029919;28;20037;-82
2022/02/17 04:31:10;;;;;;;12.75;3.38;;;8.30;99.90;;;;;;5019079;28;20051;-82
2022/02/17 04:33:36;;;;;;;13.73;2.75;;;8.20;99.90;;;;;;5032788;28;20038;-81
2022/02/17 04:36:03;;;;;;;5.68;2.83;;;8.30;99.90;;;;;;5014319;28;20033;-83
2022/02/17 04:38:30;;;;;;;7.78;1.88;;;8.30;99.90;;;;;;5030153;28;20540;-82
2022/02/17 04:43:40;;;;;;;9.43;2.75;;;8.30;99.90;;;;;;5035854;28;20045;-81
2022/02/17 04:46:07;;;;;;;8.48;2.63;;;8.30;99.90;;;;;;5031430;28;20045;-82
2022/02/17 04:48:34;;;;;;;6.88;2.05;;;8.30;99.90;;;;;;5030758;28;20038;-82
2022/02/17 04:51:00;;;;;;;8.68;2.92;;;8.30;99.90;;;;;;5031462;28;20535;-81
2022/02/17 04:53:26;;;;;;;;;;;8.30;99.90;;;;;;5030306;28;20038;-82
2022/02/17 04:55:52;;;;;;;9.30;3.28;;;8.30;99.90;;;;;;5031036;28;20046;-82
2022/02/17 04:58:17;;;;;;;11.43;3.60;;;8.50;99.90;;;;;;5013919;28;20042;-83
2022/02/17 05:00:48;;;;;;;7.85;1.73;;;8.30;99.90;;;;;;5031975;28;20046;-81
2022/02/17 05:03:14;;;;;;;9.82;3.35;;;8.30;99.90;;;;;;5030681;28;20509;-81
2022/02/17 05:05:40;;;;;;;10.50;3.38;;;8.30;99.90;;;;;;5031651;28;20679;-84
2022/02/17 05:08:06;;;;;;;1.40;1.02;;;8.30;99.90;;;;;;5032218;28;20044;-82
2022/02/17 05:10:32;;;;;;;;;;;8.30;99.90;;;;;;5030688;28;20045;-81
2022/02/17 05:12:58;;;;;;;9.23;2.80;;;8.10;99.90;;;;;;5031559;28;19917;-82
2022/02/17 05:15:23;;;;;;;;;;;8.10;99.90;;;;;;5017671;28;20079;-81
2022/02/17 05:17:49;;;;;;;9.95;3.50;;;8.20;99.90;;;;;;5014070;28;19917;-83
2022/02/17 05:20:15;;;;;;;14.40;3.40;;;8.20;99.90;;;;;;5032239;28;20053;-82
2022/02/17 05:22:42;;;;;;;12.38;2.65;;;8.20;99.90;;;;;;5015321;28;20084;-83
2022/02/17 05:25:12;;;;;;;9.80;3.20;;;8.20;99.90;;;;;;5032929;28;20096;-81
2022/02/17 05:27:39;;;;;;;14.73;2.45;;;8.20;99.90;;;;;;5027104;28;20037;-82
2022/02/17 05:30:06;;;;;;;6.63;2.10;;;8.10;99.90;;;;;;4997111;28;20454;-85
2022/02/17 05:32:32;;;;;;;4.57;1.42;;;8.10;99.90;;;;;;5019215;28;20033;-83
2022/02/17 05:34:58;;;;;;;8.48;3.28;;;8.00;99.90;;;;;;5030257;28;20048;-81
2022/02/17 05:37:24;;;;;;;12.73;3.45;;;8.10;99.90;;;;;;5029893;28;20045;-83
2022/02/17 05:39:49;;;;;;;9.02;2.35;;;8.20;99.90;;;;;;5029909;28;20038;-82
2022/02/17 05:42:15;;;;;;;18.10;2.92;;;8.10;99.90;;;;;;5033525;28;20140;-84
2022/02/17 05:44:41;;;;;;;12.80;2.20;;;8.20;99.90;;;;;;4999953;28;20505;-84
2022/02/17 05:47:08;;;;;;;9.82;2.28;;;8.20;99.90;;;;;;5045905;28;20068;-83
2022/02/17 05:49:34;;;;;;;6.85;2.05;;;8.20;99.90;;;;;;5029809;28;20053;-80
2022/02/17 05:52:00;;;;;;;11.63;3.08;;;8.20;99.90;;;;;;5021531;28;20445;-81
2022/02/17 05:54:26;;;;;;;6.15;2.28;;;8.20;99.90;;;;;;5015262;28;20628;-83
2022/02/17 05:56:51;;;;;;;5.80;2.30;;;8.20;99.90;;;;;;5024437;28;20045;-81
2022/02/17 05:59:17;;;;;;;6.18;2.60;;;8.20;99.90;;;;;;5030535;28;20046;-82
2022/02/17 06:01:43;;;;;;;10.18;3.55;;;8.20;99.90;;;;;;5032294;28;20049;-83
2022/02/17 06:04:08;;;;;;;2.75;1.92;;;8.20;99.90;;;;;;5012833;28;20132;-81
2022/02/17 06:06:36;;;;;;;5.35;1.52;;;8.20;99.90;;;;;;4991941;28;20045;-83
2022/02/17 06:09:03;;;;;;;6.22;2.80;;;8.10;99.90;;;;;;5004165;28;20038;-81
2022/02/17 06:11:29;;;;;;;8.25;2.95;;;8.10;99.90;;;;;;5033531;28;20037;-80
2022/02/17 06:13:54;;;;;;;2.78;1.63;;;8.30;99.90;;;;;;5019880;28;20076;-81
2022/02/17 06:16:20;;;;;;;11.52;2.88;;;8.20;99.90;;;;;;5017651;28;20041;-82
2022/02/17 06:18:46;;;;;;;5.57;2.83;;;8.20;99.90;;;;;;5033567;28;20478;-80
2022/02/17 06:21:12;;;;;;;7.57;2.42;;;8.10;99.90;;;;;;5017438;28;20034;-82
2022/02/17 06:23:37;;;;;;;5.40;2.47;;;8.00;99.90;;;;;;5011786;28;20041;-82
2022/02/17 06:26:03;;;;;;;4.65;1.98;;;8.00;99.90;;;;;;5017468;28;20041;-83
2022/02/17 06:28:29;;;;;;;7.28;3.03;;;8.00;99.90;;;;;;5033805;28;20049;-82
2022/02/17 06:30:55;;;;;;;3.83;2.40;;;7.90;99.90;;;;;;5040026;28;20045;-81
2022/02/17 06:33:20;;;;;;;7.35;2.78;;;7.90;99.90;;;;;;5040845;28;20110;-82
2022/02/17 06:35:46;;;;;;;4.18;1.67;;;8.00;99.90;;;;;;5033820;28;20483;-82
2022/02/17 06:38:12;;;;;;;6.82;1.60;;;7.90;99.90;;;;;;5033956;28;20038;-81
2022/02/17 06:40:38;;;;;;;4.60;2.35;;;7.80;99.90;;;;;;5023162;28;20063;-82
2022/02/17 06:43:04;;;;;;;3.30;2.15;;;7.80;99.90;;;;;;5033695;28;20038;-84
2022/02/17 06:45:30;;;;;;;5.68;1.90;;;7.90;99.90;;;;;;5016553;28;20526;-84
2022/02/17 06:47:56;;;;;;;4.13;1.77;;;7.90;99.90;;;;;;5016774;28;20042;-84
2022/02/17 06:50:21;;;;;;;4.82;1.15;;;7.90;99.90;;;;;;5005360;28;20064;-85
2022/02/17 06:52:47;;;;;;;3.17;1.70;;;8.00;99.90;;;;;;5026704;28;20513;-83
2022/02/17 06:55:13;;;;;;;3.63;2.38;;;7.90;99.90;;;;;;5033194;28;20093;-83
2022/02/17 06:57:39;;;;;;;3.40;1.85;;;7.90;99.90;;;;;;5035429;28;20124;-82
2022/02/17 07:00:06;;;;;;;5.22;1.67;;;7.90;99.90;;;;;;5033151;28;20132;-81
2022/02/17 07:02:33;;;;;;;1.52;1.13;;;7.80;99.90;;;;;;5055675;28;20071;-80
2022/02/17 07:05:01;;;;;;;1.70;1.52;;;7.80;99.90;;;;;;5052719;28;20044;-82
2022/02/17 07:07:27;;;;;;;10.50;3.17;;;7.80;99.90;;;;;;5053127;28;20072;-82
2022/02/17 07:09:53;;;;;;;6.25;2.92;;;7.80;99.90;;;;;;5030139;28;20042;-82
2022/02/17 07:12:18;;;;;;;1.92;1.83;;;7.80;99.90;;;;;;5034802;28;20033;-84
2022/02/17 07:14:44;;;;;;;4.22;1.88;;;7.80;99.90;;;;;;5035479;28;20400;-82
2022/02/17 07:17:10;;;;;;;9.32;2.80;;;7.80;99.90;;;;;;5037219;28;20123;-84
2022/02/17 07:19:36;;;;;;;4.30;2.83;;;7.80;99.90;;;;;;5032438;28;20049;-83
2022/02/17 07:22:02;;;;;;;3.97;2.05;;;7.80;99.90;;;;;;5022054;28;20040;-84
2022/02/17 07:24:29;;;;;;;4.50;2.13;;;7.70;99.90;;;;;;5023887;28;20041;-81
2022/02/17 07:26:55;;;;;;;1.27;1.17;;;7.70;99.90;;;;;;5034351;28;20478;-83
2022/02/17 07:29:21;;;;;;;4.32;1.77;;;7.80;99.90;;;;;;5031375;28;20067;-83
2022/02/17 07:31:51;;;;;;;5.38;2.65;;;7.80;99.90;;;;;;5016330;28;20101;-83
2022/02/17 07:34:18;;;;;;;6.93;2.15;;;7.70;99.90;;;;;;5032883;28;20053;-84
2022/02/17 07:36:44;;;;;;;7.78;1.95;;;7.80;99.90;;;;;;5019254;28;20045;-85
2022/02/17 07:39:10;;;;;;;5.70;1.30;;;7.80;99.90;;;;;;5002414;28;20409;-83
2022/02/17 07:41:39;;;;;;;5.32;1.90;;;7.70;99.90;;;;;;5022680;28;20049;-84
2022/02/17 07:44:06;;;;;;;6.50;2.22;;;7.70;99.90;;;;;;5036357;28;20061;-84
2022/02/17 07:46:32;;;;;;;5.45;1.70;;;7.80;99.90;;;;;;5018745;28;20055;-82
2022/02/17 07:49:00;;;;;;;7.30;1.98;;;7.70;99.90;;;;;;5020718;28;20095;-83
2022/02/17 07:51:27;;;;;;;8.02;2.80;;;7.70;99.90;;;;;;5035919;28;20095;-81
2022/02/17 07:53:52;;;;;;;2.38;1.58;;;7.70;99.90;;;;;;5019930;28;20045;-81
2022/02/17 07:56:18;;;;;;;4.03;2.33;;;7.70;99.90;;;;;;5035998;28;20044;-81
2022/02/17 07:58:44;;;;;;;3.67;2.00;;;7.70;99.90;;;;;;4996682;28;20065;-81
2022/02/17 08:01:10;;;;;;;5.07;2.15;;;7.70;99.90;;;;;;5019744;28;20034;-79
2022/02/17 08:03:54;;;;;;;8.75;2.30;;;7.70;99.90;;;;;;5028565;28;20547;-82
2022/02/17 08:06:22;;;;;;;2.83;1.95;;;7.70;99.90;;;;;;5002582;28;20602;-84
2022/02/17 08:09:07;;;;;;;5.57;2.25;;;7.50;99.90;;;;;;5017299;28;20041;-83
2022/02/17 08:11:33;;;;;;;1.08;1.00;;;7.60;99.90;;;;;;5016493;28;20044;-85
2022/02/17 08:14:01;;;;;;;2.72;1.90;;;7.70;99.90;;;;;;5018439;28;20045;-82
2022/02/17 08:16:27;;;;;;;7.75;2.78;;;7.60;99.90;;;;;;5018186;28;20443;-86
2022/02/17 08:18:53;;;;;;;;;;;7.60;99.90;;;;;;5025360;28;20061;-82
2022/02/17 08:21:27;;;;;;;2.97;1.42;;;7.70;99.90;;;;;;5051729;28;19920;-84
2022/02/17 08:23:53;;;;;;;1.08;1.00;;;7.20;99.90;;;;;;5028691;28;20030;-79
2022/02/17 08:26:20;;;;;;;3.50;2.03;;;7.60;99.90;;;;;;5021483;28;20051;-81
2022/02/17 08:28:46;;;;;;;11.48;2.58;;;7.70;99.90;;;;;;5016055;28;20152;-83
2022/02/17 08:31:12;;;;;;;3.15;1.65;;;7.70;99.90;;;;;;5018985;28;20129;-87
2022/02/17 08:33:38;;;;;;;3.13;1.50;;;7.70;99.90;;;;;;5014436;28;20067;-84
2022/02/17 08:36:04;;;;;;;6.80;1.60;;;7.60;99.90;;;;;;5030258;28;20050;-84
2022/02/17 08:38:31;;;;;;;;;;;7.60;99.90;;;;;;5013846;28;20057;-80
2022/02/17 08:40:58;;;;;;;3.40;2.08;;;7.60;99.90;;;;;;4998981;28;19917;-82
2022/02/17 08:43:30;;;;;;;10.60;2.88;;;7.60;99.90;;;;;;5014148;28;20107;-87
2022/02/17 08:45:56;;;;;;;4.22;1.83;;;7.60;99.90;;;;;;5013421;28;20060;-83
2022/02/17 08:48:22;;;;;;;3.45;1.83;;;7.70;99.90;;;;;;5036610;28;20050;-86
2022/02/17 08:50:48;;;;;;;5.45;2.28;;;7.60;99.90;;;;;;5030497;28;20880;-84
2022/02/17 08:53:17;;;;;;;5.15;1.80;;;7.60;99.90;;;;;;5015750;28;20044;-82
2022/02/17 08:55:42;;;;;;;0.52;0.52;;;7.60;99.90;;;;;;4996928;28;20402;-84
2022/02/17 08:58:09;;;;;;;10.93;1.35;;;7.60;99.90;;;;;;5029667;28;20041;-89
2022/02/17 09:00:35;;;;;;;6.60;2.38;;;7.50;99.90;;;;;;5013532;28;20068;-84
2022/02/17 09:03:11;;;;;;;8.23;2.88;;;6.60;99.90;;;;;;4993209;28;20067;-82
2022/02/17 09:05:40;;;;;;;2.72;1.52;;;7.60;99.90;;;;;;4998363;28;20099;-83
2022/02/17 09:08:09;;;;;;;9.23;3.45;;;7.60;99.90;;;;;;5015234;28;20056;-80
2022/02/17 09:10:39;;;;;;;12.00;2.70;;;7.70;99.90;;;;;;5014511;28;20112;-83
2022/02/17 09:13:05;;;;;;;4.57;1.92;;;7.60;99.90;;;;;;5017101;28;20045;-82
2022/02/17 09:15:30;;;;;;;4.40;1.88;;;7.60;99.90;;;;;;5016257;28;20525;-80
2022/02/17 09:17:56;;;;;;;3.03;2.00;;;7.60;99.90;;;;;;5030627;28;20108;-82
2022/02/17 09:20:22;;;;;;;5.15;2.38;;;7.70;99.90;;;;;;5013950;28;20041;-83
2022/02/17 09:22:48;;;;;;;10.80;3.05;;;7.60;99.90;;;;;;5011176;28;20437;-83
2022/02/17 09:25:14;;;;;;;1.80;1.67;;;7.70;99.90;;;;;;5047941;28;20116;-85
2022/02/17 09:27:41;;;;;;;4.70;2.13;;;7.70;99.90;;;;;;5017176;28;20048;-82
2022/02/17 09:30:08;;;;;;;4.13;1.83;;;7.70;99.90;;;;;;5029336;28;20391;-81
2022/02/17 09:32:34;;;;;;;2.47;1.75;;;7.80;99.90;;;;;;5028645;28;20083;-83
2022/02/17 09:35:01;;;;;;;5.22;2.15;;;7.80;99.90;;;;;;5014174;28;20041;-81
2022/02/17 09:37:26;;;;;;;;;;;7.80;99.90;;;;;;5031271;28;20124;-83
2022/02/17 09:39:52;;;;;;;3.13;1.48;;;7.80;99.90;;;;;;5001398;28;20059;-87
2022/02/17 09:42:19;;;;;;;1.55;1.00;;;7.70;99.90;;;;;;4999018;28;20040;-83
2022/02/17 09:44:45;;;;;;;6.43;2.88;;;7.80;99.90;;;;;;5029699;28;20081;-83
2022/02/17 09:47:11;;;;;;;2.17;1.60;;;7.80;99.90;;;;;;5033843;28;20072;-81
2022/02/17 09:49:42;;;;;;;9.18;3.15;;;7.80;99.90;;;;;;5030476;28;20367;-82
2022/02/17 09:52:09;;;;;;;1.45;1.30;;;7.80;99.90;;;;;;4999325;28;20054;-82
2022/02/17 09:54:35;;;;;;;6.32;2.15;;;7.80;99.90;;;;;;5026995;28;20406;-85
2022/02/17 09:57:02;;;;;;;1.17;1.08;;;7.90;99.90;;;;;;5013727;28;20049;-86
2022/02/17 09:59:29;;;;;;;3.75;1.67;;;8.00;99.90;;;;;;5018412;28;20037;-82
2022/02/17 10:02:00;;;;;;;7.10;2.47;;;8.00;99.90;;;;;;5016608;28;20076;-83
2022/02/17 10:04:27;;;;;;;7.18;2.13;;;8.00;99.90;;;;;;5023599;28;20044;-82
2022/02/17 10:07:03;;;;;;;7.75;2.40;;;8.00;99.90;;;;;;5000010;28;20045;-84
2022/02/17 10:09:43;;;;;;;3.97;2.35;;;8.00;99.90;;;;;;5025703;28;20045;-82
2022/02/17 10:12:11;;;;;;;7.68;1.83;;;8.10;99.90;;;;;;5027614;28;20063;-84
2022/02/17 10:14:37;;;;;;;4.65;1.98;;;8.10;99.90;;;;;;5028701;28;20041;-82
2022/02/17 10:17:06;;;;;;;4.10;2.13;;;8.10;99.90;;;;;;5017645;28;20095;-83
2022/02/17 10:19:39;;;;;;;4.28;1.65;;;8.10;99.90;;;;;;5020656;28;20041;-81
2022/02/17 10:22:08;;;;;;;5.05;2.40;;;8.10;99.90;;;;;;5029245;28;20379;-83
2022/02/17 10:24:44;;;;;;;3.65;2.47;;;8.10;99.90;;;;;;5012892;28;20037;-86
2022/02/17 10:27:15;;;;;;;;;;;8.20;99.90;;;;;;5029917;28;20057;-87
2022/02/17 10:30:19;;;;;;;4.85;1.55;;;8.30;99.90;;;;;;5029495;28;19928;-83
2022/02/17 10:33:00;;;;;;;2.60;1.77;;;8.30;99.90;;;;;;5027809;28;20518;-83
2022/02/17 10:35:28;;;;;;;8.25;2.72;;;8.30;99.90;;;;;;5014085;28;20044;-85
2022/02/17 10:38:17;;;;;;;7.47;2.58;;;8.30;99.90;;;;;;5024593;28;20113;-83
2022/02/17 10:40:54;;;;;;;2.53;0.93;;;8.40;99.90;;;;;;5039534;28;20080;-81
2022/02/17 10:43:22;;;;;;;7.38;2.25;;;8.40;99.90;;;;;;5043511;28;20055;-82
2022/02/17 10:45:50;;;;;;;2.20;1.65;;;8.50;99.90;;;;;;5022692;28;20042;-83
2022/02/17 10:48:35;;;;;;;5.68;1.98;;;8.60;99.90;;;;;;5016883;28;20050;-81
2022/02/17 10:51:13;;;;;;;3.15;1.85;;;8.60;99.90;;;;;;5015655;28;20383;-83
2022/02/17 10:53:42;;;;;;;5.32;2.35;;;8.50;99.90;;;;;;5015210;28;20049;-80
2022/02/17 10:56:13;;;;;;;1.00;1.00;;;8.50;99.90;;;;;;5038661;28;20041;-83
2022/02/17 10:58:47;;;;;;;0.77;0.77;;;8.50;99.90;;;;;;5017504;28;20072;-82
2022/02/17 11:01:15;;;;;;;2.78;1.85;;;8.60;99.90;;;;;;5022096;28;20096;-84
2022/02/17 11:03:42;;;;;;;5.10;2.33;;;8.50;99.90;;;;;;5041504;28;20052;-83
2022/02/17 11:06:10;;;;;;;5.65;2.30;;;8.60;99.90;;;;;;5044150;28;20103;-83
2022/02/17 11:08:37;;;;;;;6.43;2.10;;;8.60;99.90;;;;;;5037417;28;20439;-84
2022/02/17 11:11:04;;;;;;;10.32;1.52;;;8.60;99.90;;;;;;5016180;28;20091;-82
2022/02/17 11:13:31;;;;;;;15.93;1.60;;;8.50;99.90;;;;;;5033536;28;20048;-82
2022/02/17 11:16:03;;;;;;;6.03;2.22;;;8.60;99.90;;;;;;5046949;28;20048;-82
2022/02/17 11:18:30;;;;;;;8.90;2.28;;;8.80;99.90;;;;;;5035306;28;20079;-83
2022/02/17 11:20:57;;;;;;;5.00;2.45;;;8.80;99.90;;;;;;5016896;28;20073;-82
2022/02/17 11:23:34;;;;;;;5.32;1.77;;;8.80;99.90;;;;;;5034687;28;20049;-80
2022/02/17 11:26:02;;;;;;;1.83;1.38;;;8.90;99.90;;;;;;5022080;28;20049;-81
2022/02/17 11:28:34;;;;;;;4.15;2.17;;;8.90;99.90;;;;;;5030839;28;20120;-81
2022/02/17 11:31:08;;;;;;;2.53;2.20;;;9.00;99.90;;;;;;5039202;28;20053;-79
2022/02/17 11:33:41;;;;;;;10.55;1.38;;;9.00;99.90;;;;;;5053759;28;20067;-79
2022/02/17 11:36:27;;;;;;;2.40;1.45;;;9.00;99.90;;;;;;5028518;28;20061;-78
2022/02/17 11:38:57;;;;;;;1.52;1.42;;;9.00;99.90;;;;;;5043026;28;20541;-78
2022/02/17 11:41:31;;;;;;;4.72;2.40;;;9.10;99.90;;;;;;5040024;28;20426;-82
2022/02/17 11:44:18;;;;;;;7.85;2.05;;;9.20;99.90;;;;;;5019343;28;20041;-82
2022/02/17 11:46:50;;;;;;;;;;;9.10;99.90;;;;;;5019708;28;20044;-81
2022/02/17 11:49:31;;;;;;;3.55;2.28;;;9.10;99.90;;;;;;5034860;28;20007;-82
2022/02/17 11:52:16;;;;;;;5.32;2.05;;;9.10;99.90;;;;;;5033841;28;20537;-81
2022/02/17 11:55:03;;;;;;;4.43;1.75;;;9.20;99.90;;;;;;5015990;28;20556;-79
2022/02/17 11:57:38;;;;;;;7.67;3.00;;;9.10;99.90;;;;;;5032827;28;20463;-81
2022/02/17 12:00:19;;;;;;;3.10;1.50;;;9.10;99.90;;;;;;5032706;28;20320;-82
2022/02/17 12:02:45;;;;;;;5.82;1.60;;;9.00;99.90;;;;;;5030839;28;20132;-78
2022/02/17 12:05:16;;;;;;;2.35;1.10;;;9.00;99.90;;;;;;5015204;28;20180;-80
2022/02/17 12:11:42;;;;;;;2.08;0.93;;;9.00;99.90;;;;;;4990876;28;20095;-84
2022/02/17 12:14:13;;;;;;;4.30;1.63;;;9.00;99.90;;;;;;5011237;28;20128;-85
2022/02/17 12:17:16;;;;;;;;;;;9.00;99.90;;;;;;5021845;28;20072;-80
2022/02/17 12:19:46;;;;;;;9.23;2.15;;;9.20;99.90;;;;;;5037585;28;19920;-77
2022/02/17 12:22:15;;;;;;;5.65;2.75;;;9.10;99.90;;;;;;4997761;28;20042;-80
2022/02/17 12:24:49;;;;;;;5.03;1.52;;;9.20;99.90;;;;;;5031064;28;20076;-81
2022/02/17 12:27:24;;;;;;;3.70;1.58;;;9.10;99.90;;;;;;5020653;28;20441;-84
2022/02/17 12:30:04;;;;;;;3.65;2.10;;;9.10;99.90;;;;;;4999668;28;20060;-83
2022/02/17 12:32:36;;;;;;;;;;;9.10;99.90;;;;;;5026334;28;20048;-80
2022/02/17 12:35:03;;;;;;;1.83;1.42;;;9.10;99.90;;;;;;5016901;28;19931;-80
2022/02/17 12:37:28;;;;;;;2.28;1.25;;;9.10;99.90;;;;;;5028122;28;20150;-79
2022/02/17 12:39:54;;;;;;;2.75;1.48;;;7.80;99.90;;;;;;5034746;28;20085;-80
2022/02/17 12:42:21;;;;;;;5.88;2.70;;;9.10;99.90;;;;;;5034282;28;20494;-78
2022/02/17 12:44:51;;;;;;;4.90;1.00;;;9.10;99.90;;;;;;5030868;28;20053;-78
2022/02/17 12:47:16;;;;;;;5.00;2.45;;;9.20;99.90;;;;;;5020671;28;20097;-77
2022/02/17 12:49:43;;;;;;;4.22;2.00;;;9.30;99.90;;;;;;5032667;28;20073;-79
2022/02/17 12:52:09;;;;;;;;;;;9.40;99.90;;;;;;5034881;28;20037;-84
2022/02/17 12:54:36;;;;;;;4.50;1.65;;;9.40;99.90;;;;;;5014475;28;19921;-81
2022/02/17 12:57:15;;;;;;;3.00;1.02;;;9.50;99.90;;;;;;5028936;28;20501;-84
2022/02/17 13:00:00;;;;;;;2.47;1.50;;;9.50;99.90;;;;;;5026484;28;20053;-87
2022/02/17 13:03:35;;;;;;;2.22;1.20;;;10.70;99.90;;;;;;5007260;28;20042;-86
2022/02/17 13:06:18;;;;;;;5.78;2.35;;;9.30;99.90;;;;;;5029250;28;20588;-85
2022/02/17 13:08:49;;;;;;;4.43;1.67;;;9.30;99.90;;;;;;5021076;28;20156;-83
2022/02/17 13:11:17;;;;;;;3.55;1.58;;;9.30;99.90;;;;;;5030996;28;20046;-80